sensor_id;sensor_type;location;lat;lon;timestamp;temperature;humidity
15951;DHT22;8074;48.112;11.570;2022-10-19T00:01:11;14.90;99.90
15951;DHT22;8074;48.112;11.570;2022-10-19T00:06:12;15.10;99.90
15951;DHT22;8074;48.112;11.570;2022-10-19T00:08:42;15.20;99.90
15951;DHT22;8074;48.112;11.570;2022-10-19T00:11:09;14.90;99.90
15951;DHT22;8074;48.112;11.570;2022-10-19T00:13:37;14.80;99.90
15951;DHT22;8074;48.112;11.570;2022-10-19T00:16:08;14.70;99.90
15951;DHT22;8074;48.112;11.570;2022-10-19T00:18:35;14.90;99.90
15951;DHT22;8074;48.112;11.570;2022-10-19T00:21:03;15.00;99.90
15951;DHT22;8074;48.112;11.570;2022-10-19T00:23:30;15.10;99.90
15951;DHT22;8074;48.112;11.570;2022-10-19T00:25:59;15.10;99.90
15951;DHT22;8074;48.112;11.570;2022-10-19T00:28:26;15.10;99.90
15951;DHT22;8074;48.112;11.570;2022-10-19T00:30:53;15.30;99.90
15951;DHT22;8074;48.112;11.570;2022-10-19T00:33:20;15.20;99.90
15951;DHT22;8074;48.112;11.570;2022-10-19T00:35:48;15.10;99.90
15951;DHT22;8074;48.112;11.570;2022-10-19T00:38:16;15.20;99.90
15951;DHT22;8074;48.112;11.570;2022-10-19T00:40:43;15.20;99.90
15951;DHT22;8074;48.112;11.570;2022-10-19T00:43:14;15.20;99.90
15951;DHT22;8074;48.112;11.570;2022-10-19T00:45:42;15.20;99.90
15951;DHT22;8074;48.112;11.570;2022-10-19T00:48:11;15.30;99.90
15951;DHT22;8074;48.112;11.570;2022-10-19T00:50:39;15.20;99.90
15951;DHT22;8074;48.112;11.570;2022-10-19T00:53:06;15.20;99.90
15951;DHT22;8074;48.112;11.570;2022-10-19T00:55:34;15.30;99.90
15951;DHT22;8074;48.112;11.570;2022-10-19T00:58:03;15.10;99.90
15951;DHT22;8074;48.112;11.570;2022-10-19T01:00:31;14.90;99.90
15951;DHT22;8074;48.112;11.570;2022-10-19T01:03:00;14.90;99.90
15951;DHT22;8074;48.112;11.570;2022-10-19T01:05:27;15.00;99.90
15951;DHT22;8074;48.112;11.570;2022-10-19T01:07:56;14.90;99.90
15951;DHT22;8074;48.112;11.570;2022-10-19T01:10:29;14.70;99.90
15951;DHT22;8074;48.112;11.570;2022-10-19T01:13:14;14.70;99.90
15951;DHT22;8074;48.112;11.570;2022-10-19T01:15:53;14.80;99.90
15951;DHT22;8074;48.112;11.570;2022-10-19T01:18:28;14.90;99.90
15951;DHT22;8074;48.112;11.570;2022-10-19T01:21:20;15.00;99.90
15951;DHT22;8074;48.112;11.570;2022-10-19T01:27:35;14.90;99.90
15951;DHT22;8074;48.112;11.570;2022-10-19T01:30:12;15.10;99.90
15951;DHT22;8074;48.112;11.570;2022-10-19T01:32:57;15.10;99.90
15951;DHT22;8074;48.112;11.570;2022-10-19T01:35:32;15.10;99.90
15951;DHT22;8074;48.112;11.570;2022-10-19T01:38:10;15.00;99.90
15951;DHT22;8074;48.112;11.570;2022-10-19T01:40:46;15.00;99.90
15951;DHT22;8074;48.112;11.570;2022-10-19T01:43:23;14.80;99.90
15951;DHT22;8074;48.112;11.570;2022-10-19T01:45:55;14.80;99.90
15951;DHT22;8074;48.112;11.570;2022-10-19T01:48:27;15.00;99.90
15951;DHT22;8074;48.112;11.570;2022-10-19T01:50:57;14.80;99.90
15951;DHT22;8074;48.112;11.570;2022-10-19T01:53:27;14.50;99.90
15951;DHT22;8074;48.112;11.570;2022-10-19T01:55:54;14.50;99.90
15951;DHT22;8074;48.112;11.570;2022-10-19T01:58:26;14.60;99.90
15951;DHT22;8074;48.112;11.570;2022-10-19T02:00:56;14.50;99.90
15951;DHT22;8074;48.112;11.570;2022-10-19T02:03:27;14.60;99.90
15951;DHT22;8074;48.112;11.570;2022-10-19T02:05:54;14.60;99.90
15951;DHT22;8074;48.112;11.570;2022-10-19T02:08:25;14.80;99.90
15951;DHT22;8074;48.112;11.570;2022-10-19T02:10:54;14.90;99.90
15951;DHT22;8074;48.112;11.570;2022-10-19T02:13:22;15.00;99.90
15951;DHT22;8074;48.112;11.570;2022-10-19T02:15:52;14.90;99.90
15951;DHT22;8074;48.112;11.570;2022-10-19T02:18:26;14.90;99.90
15951;DHT22;8074;48.112;11.570;2022-10-19T02:20:54;14.90;99.90
15951;DHT22;8074;48.112;11.570;2022-10-19T02:23:23;14.90;99.90
15951;DHT22;8074;48.112;11.570;2022-10-19T02:25:51;15.00;99.90
15951;DHT22;8074;48.112;11.570;2022-10-19T02:28:19;15.00;99.90
15951;DHT22;8074;48.112;11.570;2022-10-19T02:30:46;15.10;99.90
15951;DHT22;8074;48.112;11.570;2022-10-19T02:33:13;15.10;99.90
15951;DHT22;8074;48.112;11.570;2022-10-19T02:35:41;15.30;99.90
15951;DHT22;8074;48.112;11.570;2022-10-19T02:38:10;15.00;99.90
15951;DHT22;8074;48.112;11.570;2022-10-19T02:40:46;15.00;99.90
15951;DHT22;8074;48.112;11.570;2022-10-19T02:43:16;15.10;99.90
15951;DHT22;8074;48.112;11.570;2022-10-19T02:45:51;15.00;99.90
15951;DHT22;8074;48.112;11.570;2022-10-19T02:48:22;14.90;99.90
15951;DHT22;8074;48.112;11.570;2022-10-19T02:50:51;14.80;99.90
15951;DHT22;8074;48.112;11.570;2022-10-19T02:53:18;15.00;99.90
15951;DHT22;8074;48.112;11.570;2022-10-19T02:55:46;14.90;99.90
15951;DHT22;8074;48.112;11.570;2022-10-19T02:58:14;15.00;99.90
15951;DHT22;8074;48.112;11.570;2022-10-19T03:00:41;15.10;99.90
15951;DHT22;8074;48.112;11.570;2022-10-19T03:03:08;15.30;99.90
15951;DHT22;8074;48.112;11.570;2022-10-19T03:05:35;15.30;99.90
15951;DHT22;8074;48.112;11.570;2022-10-19T03:08:04;15.30;99.90
15951;DHT22;8074;48.112;11.570;2022-10-19T03:10:31;15.20;99.90
15951;DHT22;8074;48.112;11.570;2022-10-19T03:12:58;15.20;99.90
15951;DHT22;8074;48.112;11.570;2022-10-19T03:15:25;15.00;99.90
15951;DHT22;8074;48.112;11.570;2022-10-19T03:17:54;15.00;99.90
15951;DHT22;8074;48.112;11.570;2022-10-19T03:20:21;15.20;99.90
15951;DHT22;8074;48.112;11.570;2022-10-19T03:22:48;15.30;99.90
15951;DHT22;8074;48.112;11.570;2022-10-19T03:25:17;15.20;99.90
15951;DHT22;8074;48.112;11.570;2022-10-19T03:27:44;15.10;99.90
15951;DHT22;8074;48.112;11.570;2022-10-19T03:30:10;15.10;99.90
15951;DHT22;8074;48.112;11.570;2022-10-19T03:32:37;15.10;99.90
15951;DHT22;8074;48.112;11.570;2022-10-19T03:35:05;15.10;99.90
15951;DHT22;8074;48.112;11.570;2022-10-19T03:37:32;15.20;99.90
15951;DHT22;8074;48.112;11.570;2022-10-19T03:39:59;15.10;99.90
15951;DHT22;8074;48.112;11.570;2022-10-19T03:42:28;15.00;99.90
15951;DHT22;8074;48.112;11.570;2022-10-19T03:44:54;14.90;99.90
15951;DHT22;8074;48.112;11.570;2022-10-19T03:47:21;14.90;99.90
15951;DHT22;8074;48.112;11.570;2022-10-19T03:49:48;14.90;99.90
15951;DHT22;8074;48.112;11.570;2022-10-19T03:52:16;15.00;99.90
15951;DHT22;8074;48.112;11.570;2022-10-19T03:54:43;14.80;99.90
15951;DHT22;8074;48.112;11.570;2022-10-19T03:57:11;14.60;99.90
15951;DHT22;8074;48.112;11.570;2022-10-19T03:59:39;14.80;99.90
15951;DHT22;8074;48.112;11.570;2022-10-19T04:02:06;14.80;99.90
15951;DHT22;8074;48.112;11.570;2022-10-19T04:04:33;14.60;99.90
15951;DHT22;8074;48.112;11.570;2022-10-19T04:07:01;14.50;99.90
15951;DHT22;8074;48.112;11.570;2022-10-19T04:09:28;14.40;99.90
15951;DHT22;8074;48.112;11.570;2022-10-19T04:11:55;14.30;99.90
15951;DHT22;8074;48.112;11.570;2022-10-19T04:14:22;14.30;99.90
15951;DHT22;8074;48.112;11.570;2022-10-19T04:16:52;14.30;99.90
15951;DHT22;8074;48.112;11.570;2022-10-19T04:19:19;14.30;99.90
15951;DHT22;8074;48.112;11.570;2022-10-19T04:21:48;14.40;99.90
15951;DHT22;8074;48.112;11.570;2022-10-19T04:24:16;14.60;99.90
15951;DHT22;8074;48.112;11.570;2022-10-19T04:26:46;14.60;99.90
15951;DHT22;8074;48.112;11.570;2022-10-19T04:29:13;14.50;99.90
15951;DHT22;8074;48.112;11.570;2022-10-19T04:31:41;14.60;99.90
15951;DHT22;8074;48.112;11.570;2022-10-19T04:34:10;14.60;99.90
15951;DHT22;8074;48.112;11.570;2022-10-19T04:36:38;14.80;99.90
15951;DHT22;8074;48.112;11.570;2022-10-19T04:39:06;14.90;99.90
15951;DHT22;8074;48.112;11.570;2022-10-19T04:41:33;14.90;99.90
15951;DHT22;8074;48.112;11.570;2022-10-19T04:44:02;14.90;99.90
15951;DHT22;8074;48.112;11.570;2022-10-19T04:46:31;14.90;99.90
15951;DHT22;8074;48.112;11.570;2022-10-19T04:48:59;14.80;99.90
15951;DHT22;8074;48.112;11.570;2022-10-19T04:51:30;14.70;99.90
15951;DHT22;8074;48.112;11.570;2022-10-19T04:53:57;14.80;99.90
15951;DHT22;8074;48.112;11.570;2022-10-19T04:56:25;14.80;99.90
15951;DHT22;8074;48.112;11.570;2022-10-19T04:58:54;14.80;99.90
15951;DHT22;8074;48.112;11.570;2022-10-19T05:01:22;14.50;99.90
15951;DHT22;8074;48.112;11.570;2022-10-19T05:03:52;14.60;99.90
15951;DHT22;8074;48.112;11.570;2022-10-19T05:06:20;14.80;99.90
15951;DHT22;8074;48.112;11.570;2022-10-19T05:08:49;14.90;99.90
15951;DHT22;8074;48.112;11.570;2022-10-19T05:11:17;15.00;99.90
15951;DHT22;8074;48.112;11.570;2022-10-19T05:13:44;15.00;99.90
15951;DHT22;8074;48.112;11.570;2022-10-19T05:16:12;14.70;99.90
15951;DHT22;8074;48.112;11.570;2022-10-19T05:18:40;14.80;99.90
15951;DHT22;8074;48.112;11.570;2022-10-19T05:21:08;14.90;99.90
15951;DHT22;8074;48.112;11.570;2022-10-19T05:23:36;14.90;99.90
15951;DHT22;8074;48.112;11.570;2022-10-19T05:26:06;14.90;99.90
15951;DHT22;8074;48.112;11.570;2022-10-19T05:28:34;15.10;99.90
15951;DHT22;8074;48.112;11.570;2022-10-19T05:31:06;15.20;99.90
15951;DHT22;8074;48.112;11.570;2022-10-19T05:33:34;15.20;99.90
15951;DHT22;8074;48.112;11.570;2022-10-19T05:36:10;15.00;99.90
15951;DHT22;8074;48.112;11.570;2022-10-19T05:38:38;15.00;99.90
15951;DHT22;8074;48.112;11.570;2022-10-19T05:41:06;14.90;99.90
15951;DHT22;8074;48.112;11.570;2022-10-19T05:43:33;14.90;99.90
15951;DHT22;8074;48.112;11.570;2022-10-19T05:46:03;15.00;99.90
15951;DHT22;8074;48.112;11.570;2022-10-19T05:48:30;15.00;99.90
15951;DHT22;8074;48.112;11.570;2022-10-19T05:50:58;15.00;99.90
15951;DHT22;8074;48.112;11.570;2022-10-19T05:53:25;15.00;99.90
15951;DHT22;8074;48.112;11.570;2022-10-19T05:55:52;15.00;99.90
15951;DHT22;8074;48.112;11.570;2022-10-19T05:58:21;15.00;99.90
15951;DHT22;8074;48.112;11.570;2022-10-19T06:00:51;14.80;99.90
15951;DHT22;8074;48.112;11.570;2022-10-19T06:03:19;14.90;99.90
15951;DHT22;8074;48.112;11.570;2022-10-19T06:05:46;15.00;99.90
15951;DHT22;8074;48.112;11.570;2022-10-19T06:08:13;15.10;99.90
15951;DHT22;8074;48.112;11.570;2022-10-19T06:10:41;15.30;99.90
15951;DHT22;8074;48.112;11.570;2022-10-19T06:13:08;15.50;99.90
15951;DHT22;8074;48.112;11.570;2022-10-19T06:15:37;15.60;99.90
15951;DHT22;8074;48.112;11.570;2022-10-19T06:18:05;15.70;99.90
15951;DHT22;8074;48.112;11.570;2022-10-19T06:20:33;15.70;99.90
15951;DHT22;8074;48.112;11.570;2022-10-19T06:23:00;15.80;99.90
15951;DHT22;8074;48.112;11.570;2022-10-19T06:25:28;15.70;99.90
15951;DHT22;8074;48.112;11.570;2022-10-19T06:27:55;15.70;99.90
15951;DHT22;8074;48.112;11.570;2022-10-19T06:30:22;15.80;99.90
15951;DHT22;8074;48.112;11.570;2022-10-19T06:32:50;15.80;99.90
15951;DHT22;8074;48.112;11.570;2022-10-19T06:35:17;15.50;99.90
15951;DHT22;8074;48.112;11.570;2022-10-19T06:37:44;15.50;99.90
15951;DHT22;8074;48.112;11.570;2022-10-19T06:40:11;15.40;99.90
15951;DHT22;8074;48.112;11.570;2022-10-19T06:42:38;15.20;99.90
15951;DHT22;8074;48.112;11.570;2022-10-19T06:45:08;15.40;99.90
15951;DHT22;8074;48.112;11.570;2022-10-19T06:47:36;15.30;99.90
15951;DHT22;8074;48.112;11.570;2022-10-19T06:50:08;15.40;99.90
15951;DHT22;8074;48.112;11.570;2022-10-19T06:52:35;15.30;99.90
15951;DHT22;8074;48.112;11.570;2022-10-19T06:55:03;15.60;99.90
15951;DHT22;8074;48.112;11.570;2022-10-19T06:57:30;15.70;99.90
15951;DHT22;8074;48.112;11.570;2022-10-19T06:59:58;15.60;99.90
15951;DHT22;8074;48.112;11.570;2022-10-19T07:02:27;15.50;99.90
15951;DHT22;8074;48.112;11.570;2022-10-19T07:04:55;15.40;99.90
15951;DHT22;8074;48.112;11.570;2022-10-19T07:07:30;15.60;99.90
15951;DHT22;8074;48.112;11.570;2022-10-19T07:10:01;15.90;99.90
15951;DHT22;8074;48.112;11.570;2022-10-19T07:12:29;16.10;99.90
15951;DHT22;8074;48.112;11.570;2022-10-19T07:14:56;16.10;99.90
15951;DHT22;8074;48.112;11.570;2022-10-19T07:17:25;16.20;99.90
15951;DHT22;8074;48.112;11.570;2022-10-19T07:19:52;16.00;99.90
15951;DHT22;8074;48.112;11.570;2022-10-19T07:22:19;16.10;99.90
15951;DHT22;8074;48.112;11.570;2022-10-19T07:24:48;16.30;99.90
15951;DHT22;8074;48.112;11.570;2022-10-19T07:27:15;16.30;99.90
15951;DHT22;8074;48.112;11.570;2022-10-19T07:29:42;16.20;99.90
15951;DHT22;8074;48.112;11.570;2022-10-19T07:32:09;16.10;99.90
15951;DHT22;8074;48.112;11.570;2022-10-19T07:34:36;16.40;99.90
15951;DHT22;8074;48.112;11.570;2022-10-19T07:37:03;16.40;99.90
15951;DHT22;8074;48.112;11.570;2022-10-19T07:39:30;16.30;99.90
15951;DHT22;8074;48.112;11.570;2022-10-19T07:41:59;16.50;99.90
15951;DHT22;8074;48.112;11.570;2022-10-19T07:44:26;16.60;99.90
15951;DHT22;8074;48.112;11.570;2022-10-19T07:46:54;16.70;99.90
15951;DHT22;8074;48.112;11.570;2022-10-19T07:49:20;16.70;99.90
15951;DHT22;8074;48.112;11.570;2022-10-19T07:51:47;16.70;99.90
15951;DHT22;8074;48.112;11.570;2022-10-19T07:54:18;16.40;99.90
15951;DHT22;8074;48.112;11.570;2022-10-19T07:56:49;16.60;99.90
15951;DHT22;8074;48.112;11.570;2022-10-19T07:59:17;16.50;99.90
15951;DHT22;8074;48.112;11.570;2022-10-19T08:01:45;16.50;99.90
15951;DHT22;8074;48.112;11.570;2022-10-19T08:04:13;16.60;99.90
15951;DHT22;8074;48.112;11.570;2022-10-19T08:06:40;16.50;99.90
15951;DHT22;8074;48.112;11.570;2022-10-19T08:09:07;16.40;99.90
15951;DHT22;8074;48.112;11.570;2022-10-19T08:11:34;16.40;99.90
15951;DHT22;8074;48.112;11.570;2022-10-19T08:14:02;16.50;99.90
15951;DHT22;8074;48.112;11.570;2022-10-19T08:16:31;16.40;99.90
15951;DHT22;8074;48.112;11.570;2022-10-19T08:19:04;16.50;99.90
15951;DHT22;8074;48.112;11.570;2022-10-19T08:21:41;16.40;99.90
15951;DHT22;8074;48.112;11.570;2022-10-19T08:24:10;16.50;99.90
15951;DHT22;8074;48.112;11.570;2022-10-19T08:26:39;16.60;99.90
15951;DHT22;8074;48.112;11.570;2022-10-19T08:29:09;16.70;99.90
15951;DHT22;8074;48.112;11.570;2022-10-19T08:31:39;16.70;99.90
15951;DHT22;8074;48.112;11.570;2022-10-19T08:34:07;16.80;99.90
15951;DHT22;8074;48.112;11.570;2022-10-19T08:36:34;16.90;99.90
15951;DHT22;8074;48.112;11.570;2022-10-19T08:39:03;17.20;99.90
15951;DHT22;8074;48.112;11.570;2022-10-19T08:41:33;17.30;99.90
15951;DHT22;8074;48.112;11.570;2022-10-19T08:44:22;17.60;99.90
15951;DHT22;8074;48.112;11.570;2022-10-19T08:47:04;17.80;99.90
15951;DHT22;8074;48.112;11.570;2022-10-19T08:49:43;17.80;99.90
15951;DHT22;8074;48.112;11.570;2022-10-19T08:52:12;17.90;99.90
15951;DHT22;8074;48.112;11.570;2022-10-19T08:54:48;17.80;99.90
15951;DHT22;8074;48.112;11.570;2022-10-19T08:57:28;17.90;99.90
15951;DHT22;8074;48.112;11.570;2022-10-19T09:00:02;18.00;99.90
15951;DHT22;8074;48.112;11.570;2022-10-19T09:02:44;17.90;99.90
15951;DHT22;8074;48.112;11.570;2022-10-19T09:05:35;17.80;99.90
15951;DHT22;8074;48.112;11.570;2022-10-19T09:10:47;18.10;99.90
15951;DHT22;8074;48.112;11.570;2022-10-19T09:13:45;18.10;99.90
15951;DHT22;8074;48.112;11.570;2022-10-19T09:16:16;17.90;99.90
15951;DHT22;8074;48.112;11.570;2022-10-19T09:18:45;17.90;99.90
15951;DHT22;8074;48.112;11.570;2022-10-19T09:21:16;17.90;99.90
15951;DHT22;8074;48.112;11.570;2022-10-19T09:23:50;17.90;99.90
15951;DHT22;8074;48.112;11.570;2022-10-19T09:26:23;17.80;99.90
15951;DHT22;8074;48.112;11.570;2022-10-19T09:28:53;17.60;99.90
15951;DHT22;8074;48.112;11.570;2022-10-19T09:31:26;17.80;99.90
15951;DHT22;8074;48.112;11.570;2022-10-19T09:33:58;17.90;99.90
15951;DHT22;8074;48.112;11.570;2022-10-19T09:36:34;18.00;99.90
15951;DHT22;8074;48.112;11.570;2022-10-19T09:39:02;18.00;99.90
15951;DHT22;8074;48.112;11.570;2022-10-19T09:41:30;18.10;99.90
15951;DHT22;8074;48.112;11.570;2022-10-19T09:43:57;17.90;99.90
15951;DHT22;8074;48.112;11.570;2022-10-19T09:46:44;17.50;99.90
15951;DHT22;8074;48.112;11.570;2022-10-19T09:49:18;17.60;99.90
15951;DHT22;8074;48.112;11.570;2022-10-19T09:51:48;17.60;99.90
15951;DHT22;8074;48.112;11.570;2022-10-19T09:54:32;17.60;99.90
15951;DHT22;8074;48.112;11.570;2022-10-19T09:57:00;17.50;99.90
15951;DHT22;8074;48.112;11.570;2022-10-19T09:59:29;17.50;99.90
15951;DHT22;8074;48.112;11.570;2022-10-19T10:02:05;17.50;99.90
15951;DHT22;8074;48.112;11.570;2022-10-19T10:04:41;17.40;99.90
15951;DHT22;8074;48.112;11.570;2022-10-19T10:07:15;17.40;99.90
15951;DHT22;8074;48.112;11.570;2022-10-19T10:09:43;17.40;99.90
15951;DHT22;8074;48.112;11.570;2022-10-19T10:12:13;17.50;99.90
15951;DHT22;8074;48.112;11.570;2022-10-19T10:14:40;17.40;99.90
15951;DHT22;8074;48.112;11.570;2022-10-19T10:17:14;17.30;99.90
15951;DHT22;8074;48.112;11.570;2022-10-19T10:20:00;17.30;99.90
15951;DHT22;8074;48.112;11.570;2022-10-19T10:22:30;17.30;99.90
15951;DHT22;8074;48.112;11.570;2022-10-19T10:24:57;17.50;99.90
15951;DHT22;8074;48.112;11.570;2022-10-19T10:27:29;17.60;99.90
15951;DHT22;8074;48.112;11.570;2022-10-19T10:29:58;17.30;99.90
15951;DHT22;8074;48.112;11.570;2022-10-19T10:32:28;17.30;99.90
15951;DHT22;8074;48.112;11.570;2022-10-19T10:34:59;17.40;99.90
15951;DHT22;8074;48.112;11.570;2022-10-19T10:37:30;17.50;99.90
15951;DHT22;8074;48.112;11.570;2022-10-19T10:40:01;17.60;99.90
15951;DHT22;8074;48.112;11.570;2022-10-19T10:42:35;17.60;99.90
15951;DHT22;8074;48.112;11.570;2022-10-19T10:45:16;17.60;99.90
15951;DHT22;8074;48.112;11.570;2022-10-19T10:47:44;17.60;99.90
15951;DHT22;8074;48.112;11.570;2022-10-19T10:50:20;17.60;99.90
15951;DHT22;8074;48.112;11.570;2022-10-19T10:52:58;17.50;99.90
15951;DHT22;8074;48.112;11.570;2022-10-19T10:55:26;17.50;99.90
15951;DHT22;8074;48.112;11.570;2022-10-19T10:58:08;17.20;99.90
15951;DHT22;8074;48.112;11.570;2022-10-19T11:00:37;17.40;99.90
15951;DHT22;8074;48.112;11.570;2022-10-19T11:03:11;17.30;99.90
15951;DHT22;8074;48.112;11.570;2022-10-19T11:05:42;17.40;99.90
15951;DHT22;8074;48.112;11.570;2022-10-19T11:08:17;17.20;99.90
15951;DHT22;8074;48.112;11.570;2022-10-19T11:10:50;17.40;99.90
15951;DHT22;8074;48.112;11.570;2022-10-19T11:13:25;17.30;99.90
15951;DHT22;8074;48.112;11.570;2022-10-19T11:15:54;17.30;99.90
15951;DHT22;8074;48.112;11.570;2022-10-19T11:18:26;17.20;99.90
15951;DHT22;8074;48.112;11.570;2022-10-19T11:21:03;17.50;99.90
15951;DHT22;8074;48.112;11.570;2022-10-19T11:23:39;17.70;99.90
15951;DHT22;8074;48.112;11.570;2022-10-19T11:26:24;17.60;99.90
15951;DHT22;8074;48.112;11.570;2022-10-19T11:29:05;17.60;99.90
15951;DHT22;8074;48.112;11.570;2022-10-19T11:31:43;17.60;99.90
15951;DHT22;8074;48.112;11.570;2022-10-19T11:34:25;17.50;99.90
15951;DHT22;8074;48.112;11.570;2022-10-19T11:37:00;17.50;99.90
15951;DHT22;8074;48.112;11.570;2022-10-19T11:39:41;17.70;99.90
15951;DHT22;8074;48.112;11.570;2022-10-19T11:42:14;17.80;99.90
15951;DHT22;8074;48.112;11.570;2022-10-19T11:44:52;17.80;99.90
15951;DHT22;8074;48.112;11.570;2022-10-19T11:47:42;17.60;99.90
15951;DHT22;8074;48.112;11.570;2022-10-19T11:50:26;18.10;99.90
15951;DHT22;8074;48.112;11.570;2022-10-19T11:53:02;18.40;99.90
15951;DHT22;8074;48.112;11.570;2022-10-19T11:55:38;18.50;99.90
15951;DHT22;8074;48.112;11.570;2022-10-19T11:58:23;18.40;99.90
15951;DHT22;8074;48.112;11.570;2022-10-19T12:00:56;18.80;99.90
15951;DHT22;8074;48.112;11.570;2022-10-19T12:03:40;18.90;99.90
15951;DHT22;8074;48.112;11.570;2022-10-19T12:06:16;19.10;99.90
15951;DHT22;8074;48.112;11.570;2022-10-19T12:09:02;18.80;99.90
15951;DHT22;8074;48.112;11.570;2022-10-19T12:11:44;18.90;99.90
15951;DHT22;8074;48.112;11.570;2022-10-19T12:14:14;18.90;99.90
15951;DHT22;8074;48.112;11.570;2022-10-19T12:16:46;19.00;99.90
15951;DHT22;8074;48.112;11.570;2022-10-19T12:19:17;18.90;99.90
15951;DHT22;8074;48.112;11.570;2022-10-19T12:21:45;18.80;99.90
15951;DHT22;8074;48.112;11.570;2022-10-19T12:24:16;18.90;99.90
15951;DHT22;8074;48.112;11.570;2022-10-19T12:26:44;19.10;99.90
15951;DHT22;8074;48.112;11.570;2022-10-19T12:29:14;18.90;99.90
15951;DHT22;8074;48.112;11.570;2022-10-19T12:31:43;18.60;99.90
15951;DHT22;8074;48.112;11.570;2022-10-19T12:34:25;18.90;99.90
15951;DHT22;8074;48.112;11.570;2022-10-19T12:36:57;19.10;99.90
15951;DHT22;8074;48.112;11.570;2022-10-19T12:39:32;18.60;99.90
15951;DHT22;8074;48.112;11.570;2022-10-19T12:42:04;18.90;99.90
15951;DHT22;8074;48.112;11.570;2022-10-19T12:47:39;18.80;99.90
15951;DHT22;8074;48.112;11.570;2022-10-19T12:50:06;19.00;99.90
15951;DHT22;8074;48.112;11.570;2022-10-19T12:52:40;19.20;99.90
15951;DHT22;8074;48.112;11.570;2022-10-19T12:55:27;19.30;99.90
15951;DHT22;8074;48.112;11.570;2022-10-19T12:58:04;19.40;99.90
15951;DHT22;8074;48.112;11.570;2022-10-19T13:00:33;19.50;99.90
15951;DHT22;8074;48.112;11.570;2022-10-19T13:03:03;19.30;99.90
15951;DHT22;8074;48.112;11.570;2022-10-19T13:05:32;19.20;99.90
15951;DHT22;8074;48.112;11.570;2022-10-19T13:08:01;19.30;99.90
15951;DHT22;8074;48.112;11.570;2022-10-19T13:10:31;19.10;99.90
15951;DHT22;8074;48.112;11.570;2022-10-19T13:12:58;19.30;99.90
15951;DHT22;8074;48.112;11.570;2022-10-19T13:15:56;19.50;99.90
15951;DHT22;8074;48.112;11.570;2022-10-19T13:21:46;20.00;99.90
15951;DHT22;8074;48.112;11.570;2022-10-19T13:24:32;20.20;99.90
15951;DHT22;8074;48.112;11.570;2022-10-19T13:30:01;20.50;99.90
15951;DHT22;8074;48.112;11.570;2022-10-19T13:32:41;21.80;99.90
15951;DHT22;8074;48.112;11.570;2022-10-19T13:35:28;22.30;99.90
15951;DHT22;8074;48.112;11.570;2022-10-19T13:38:26;23.40;99.90
15951;DHT22;8074;48.112;11.570;2022-10-19T13:41:01;24.00;99.90
15951;DHT22;8074;48.112;11.570;2022-10-19T13:43:31;24.10;99.90
15951;DHT22;8074;48.112;11.570;2022-10-19T13:46:05;25.00;99.90
15951;DHT22;8074;48.112;11.570;2022-10-19T13:48:43;25.90;99.90
15951;DHT22;8074;48.112;11.570;2022-10-19T13:51:20;25.00;99.90
15951;DHT22;8074;48.112;11.570;2022-10-19T13:53:55;24.50;99.90
15951;DHT22;8074;48.112;11.570;2022-10-19T13:56:47;23.50;99.90
15951;DHT22;8074;48.112;11.570;2022-10-19T13:59:31;23.00;99.90
15951;DHT22;8074;48.112;11.570;2022-10-19T14:02:42;23.50;99.90
15951;DHT22;8074;48.112;11.570;2022-10-19T14:05:42;23.90;99.90
15951;DHT22;8074;48.112;11.570;2022-10-19T14:08:25;23.20;99.90
15951;DHT22;8074;48.112;11.570;2022-10-19T14:10:59;22.40;99.90
15951;DHT22;8074;48.112;11.570;2022-10-19T14:13:26;21.90;99.90
15951;DHT22;8074;48.112;11.570;2022-10-19T14:15:55;22.30;99.90
15951;DHT22;8074;48.112;11.570;2022-10-19T14:18:26;21.90;99.90
15951;DHT22;8074;48.112;11.570;2022-10-19T14:20:58;22.30;99.90
15951;DHT22;8074;48.112;11.570;2022-10-19T14:23:26;23.50;99.90
15951;DHT22;8074;48.112;11.570;2022-10-19T14:25:56;23.60;99.90
15951;DHT22;8074;48.112;11.570;2022-10-19T14:28:24;24.20;99.90
15951;DHT22;8074;48.112;11.570;2022-10-19T14:30:56;23.90;99.90
15951;DHT22;8074;48.112;11.570;2022-10-19T14:33:27;23.10;99.90
15951;DHT22;8074;48.112;11.570;2022-10-19T14:35:55;22.40;99.90
15951;DHT22;8074;48.112;11.570;2022-10-19T14:38:28;22.00;99.90
15951;DHT22;8074;48.112;11.570;2022-10-19T14:40:57;22.00;99.90
15951;DHT22;8074;48.112;11.570;2022-10-19T14:43:27;22.40;99.90
15951;DHT22;8074;48.112;11.570;2022-10-19T14:46:11;24.00;99.90
15951;DHT22;8074;48.112;11.570;2022-10-19T14:48:41;26.60;99.90
15951;DHT22;8074;48.112;11.570;2022-10-19T14:51:21;27.50;99.90
15951;DHT22;8074;48.112;11.570;2022-10-19T14:53:52;27.40;99.90
15951;DHT22;8074;48.112;11.570;2022-10-19T14:56:22;27.60;99.90
15951;DHT22;8074;48.112;11.570;2022-10-19T14:58:54;26.30;99.90
15951;DHT22;8074;48.112;11.570;2022-10-19T15:01:22;24.70;99.90
15951;DHT22;8074;48.112;11.570;2022-10-19T15:03:50;23.60;99.90
15951;DHT22;8074;48.112;11.570;2022-10-19T15:06:20;22.90;99.90
15951;DHT22;8074;48.112;11.570;2022-10-19T15:08:50;22.80;99.90
15951;DHT22;8074;48.112;11.570;2022-10-19T15:11:23;23.00;99.90
15951;DHT22;8074;48.112;11.570;2022-10-19T15:13:57;24.00;99.90
15951;DHT22;8074;48.112;11.570;2022-10-19T15:16:42;23.40;99.90
15951;DHT22;8074;48.112;11.570;2022-10-19T15:19:38;23.40;99.90
15951;DHT22;8074;48.112;11.570;2022-10-19T15:22:11;22.80;99.90
15951;DHT22;8074;48.112;11.570;2022-10-19T15:24:39;22.60;99.90
15951;DHT22;8074;48.112;11.570;2022-10-19T15:27:08;22.20;99.90
15951;DHT22;8074;48.112;11.570;2022-10-19T15:29:35;22.50;99.90
15951;DHT22;8074;48.112;11.570;2022-10-19T15:32:13;22.50;99.90
15951;DHT22;8074;48.112;11.570;2022-10-19T15:34:43;22.20;99.90
15951;DHT22;8074;48.112;11.570;2022-10-19T15:37:17;22.10;99.90
15951;DHT22;8074;48.112;11.570;2022-10-19T15:39:44;20.90;99.90
15951;DHT22;8074;48.112;11.570;2022-10-19T15:42:22;20.00;99.90
15951;DHT22;8074;48.112;11.570;2022-10-19T15:44:49;19.50;99.90
15951;DHT22;8074;48.112;11.570;2022-10-19T15:47:22;19.30;99.90
15951;DHT22;8074;48.112;11.570;2022-10-19T15:49:58;19.00;99.90
15951;DHT22;8074;48.112;11.570;2022-10-19T15:52:26;18.50;99.90
15951;DHT22;8074;48.112;11.570;2022-10-19T15:54:57;18.30;99.90
15951;DHT22;8074;48.112;11.570;2022-10-19T15:57:27;18.00;99.90
15951;DHT22;8074;48.112;11.570;2022-10-19T15:59:55;18.00;99.90
15951;DHT22;8074;48.112;11.570;2022-10-19T16:02:22;17.80;99.90
15951;DHT22;8074;48.112;11.570;2022-10-19T16:04:50;17.80;99.90
15951;DHT22;8074;48.112;11.570;2022-10-19T16:07:23;17.80;99.90
15951;DHT22;8074;48.112;11.570;2022-10-19T16:09:51;17.50;99.90
15951;DHT22;8074;48.112;11.570;2022-10-19T16:12:19;17.50;99.90
15951;DHT22;8074;48.112;11.570;2022-10-19T16:14:46;17.10;99.90